Time;durP1;ratioP1;P1;durP2;ratioP2;P2;SDS_P1;SDS_P2;PMS_P1;PMS_P2;Temp;Humidity;BMP_temperature;BMP_pressure;BME280_temperature;BME280_humidity;BME280_pressure;Samples;Min_cycle;Max_cycle;Signal;HPM_P1;HPM_P2
2023/06/21 00:02:20;;;;;;;7.05;5.18;;;23.40;99.90;;;;;;5051267;28;20132;-68
2023/06/21 00:04:45;;;;;;;11.55;5.30;;;23.40;99.90;;;;;;5050081;28;20120;-68
2023/06/21 00:07:11;;;;;;;7.32;5.07;;;23.30;99.90;;;;;;5050650;28;20053;-68
2023/06/21 00:09:37;;;;;;;7.97;5.70;;;23.20;99.90;;;;;;5051487;28;20108;-68
2023/06/21 00:12:03;;;;;;;7.72;5.75;;;23.30;99.90;;;;;;5051049;28;20079;-67
2023/06/21 00:14:29;;;;;;;6.00;4.72;;;23.30;99.90;;;;;;5051018;28;20094;-68
2023/06/21 00:16:54;;;;;;;7.55;4.88;;;23.30;99.90;;;;;;5050920;28;20025;-68
2023/06/21 00:19:20;;;;;;;6.60;4.63;;;23.30;99.90;;;;;;5051384;28;20044;-68
2023/06/21 00:21:45;;;;;;;6.95;5.07;;;23.40;99.90;;;;;;5050898;28;20080;-68
2023/06/21 00:24:11;;;;;;;6.10;5.25;;;23.30;99.90;;;;;;5049594;28;20041;-68
2023/06/21 00:26:37;;;;;;;6.28;4.88;;;23.20;99.90;;;;;;5050821;28;20033;-68
2023/06/21 00:29:02;;;;;;;9.05;6.35;;;23.30;99.90;;;;;;5050810;28;20025;-68
2023/06/21 00:31:28;;;;;;;9.50;5.20;;;23.30;99.90;;;;;;5050948;28;20025;-69
2023/06/21 00:33:54;;;;;;;6.85;4.55;;;23.30;99.90;;;;;;5049545;28;20033;-67
2023/06/21 00:36:20;;;;;;;7.15;5.30;;;23.30;99.90;;;;;;5050686;28;20032;-68
2023/06/21 00:38:46;;;;;;;8.10;4.75;;;23.30;99.90;;;;;;5050273;28;20028;-69
2023/06/21 00:41:12;;;;;;;7.13;5.20;;;23.40;99.90;;;;;;5049626;28;20029;-69
2023/06/21 00:43:37;;;;;;;8.27;5.78;;;23.30;99.90;;;;;;5051402;28;20355;-69
2023/06/21 00:46:04;;;;;;;8.77;5.50;;;23.40;99.90;;;;;;5070813;28;20041;-68
2023/06/21 00:48:29;;;;;;;8.32;5.97;;;23.30;99.90;;;;;;5070618;28;20021;-68
2023/06/21 00:50:56;;;;;;;7.97;5.93;;;23.30;99.90;;;;;;5070367;28;20051;-68
2023/06/21 00:53:23;;;;;;;7.95;6.35;;;23.20;99.90;;;;;;5070305;28;20416;-68
2023/06/21 00:55:50;;;;;;;9.30;6.50;;;23.20;99.90;;;;;;5070348;28;20123;-68
2023/06/21 00:58:20;;;;;;;9.13;6.15;;;23.20;99.90;;;;;;5070745;28;20028;-69
2023/06/21 01:00:49;;;;;;;9.30;6.43;;;23.20;99.90;;;;;;5070438;28;20032;-69
2023/06/21 01:03:17;;;;;;;7.53;5.93;;;23.10;99.90;;;;;;5070356;28;20070;-69
2023/06/21 01:05:47;;;;;;;8.77;5.97;;;23.20;99.90;;;;;;5070297;28;20037;-69
2023/06/21 01:08:35;;;;;;;9.38;6.18;;;23.20;99.90;;;;;;5069248;28;20029;-69
2023/06/21 01:11:17;;;;;;;9.77;6.53;;;23.10;99.90;;;;;;5069206;28;20048;-67
2023/06/21 01:14:01;;;;;;;15.55;7.00;;;23.10;99.90;;;;;;5070122;28;20047;-68
2023/06/21 01:16:39;;;;;;;8.95;6.60;;;23.10;99.90;;;;;;5070816;28;20025;-69
2023/06/21 01:19:08;;;;;;;11.07;7.18;;;23.10;99.90;;;;;;5070442;28;20043;-68
2023/06/21 01:21:35;;;;;;;8.57;6.43;;;23.10;99.90;;;;;;5070562;28;20089;-68
2023/06/21 01:25:02;;;;;;;12.70;6.75;;;22.90;99.90;;;;;;5070089;28;20032;-68
2023/06/21 01:28:02;;;;;;;7.03;5.97;;;23.00;99.90;;;;;;5031080;28;20404;-68
2023/06/21 01:30:31;;;;;;;11.57;6.03;;;22.90;99.90;;;;;;5070044;28;20028;-68
2023/06/21 01:32:57;;;;;;;9.10;6.00;;;22.90;99.90;;;;;;5068851;28;20145;-68
2023/06/21 01:35:24;;;;;;;9.82;6.10;;;22.80;99.90;;;;;;5064923;28;20036;-67
2023/06/21 01:37:51;;;;;;;9.73;6.20;;;22.80;99.90;;;;;;5049992;28;20108;-69
2023/06/21 01:40:16;;;;;;;10.13;5.75;;;22.80;99.90;;;;;;5048955;28;20035;-68
2023/06/21 01:42:42;;;;;;;6.70;5.72;;;22.80;99.90;;;;;;5049683;28;20029;-68
2023/06/21 01:45:09;;;;;;;6.32;5.32;;;22.80;99.90;;;;;;5049933;28;20102;-67
2023/06/21 01:47:36;;;;;;;9.52;6.00;;;22.80;99.90;;;;;;5049942;28;20136;-68
2023/06/21 01:50:04;;;;;;;12.10;5.68;;;22.80;99.90;;;;;;5048827;28;20040;-67
2023/06/21 01:52:31;;;;;;;7.32;5.10;;;22.70;99.90;;;;;;5054311;28;20138;-68
2023/06/21 01:54:57;;;;;;;7.75;5.60;;;22.60;99.90;;;;;;5053662;28;20043;-68
2023/06/21 01:57:25;;;;;;;8.50;5.28;;;22.60;99.90;;;;;;5053951;28;20030;-68
2023/06/21 01:59:52;;;;;;;8.98;5.60;;;22.60;99.90;;;;;;5052687;28;20339;-68
2023/06/21 02:02:20;;;;;;;5.93;5.32;;;22.60;99.90;;;;;;5053894;28;20108;-68
2023/06/21 02:04:46;;;;;;;;;;;22.60;99.90;;;;;;5054214;28;20104;-68
2023/06/21 02:07:13;;;;;;;10.93;6.03;;;22.60;99.90;;;;;;5054119;28;20004;-68
2023/06/21 02:09:42;;;;;;;8.20;5.07;;;22.60;99.90;;;;;;5053587;28;20043;-69
2023/06/21 02:12:09;;;;;;;9.80;5.57;;;22.40;99.90;;;;;;5053681;28;20029;-69
2023/06/21 02:14:37;;;;;;;8.47;5.83;;;22.50;99.90;;;;;;5052368;28;20041;-69
2023/06/21 02:17:03;;;;;;;;;;;22.50;99.90;;;;;;5052945;28;20045;-68
2023/06/21 02:19:29;;;;;;;8.70;5.22;;;22.50;99.90;;;;;;5054167;28;19965;-68
2023/06/21 02:21:55;;;;;;;9.85;5.63;;;22.50;99.90;;;;;;5053775;28;20127;-69
2023/06/21 02:24:20;;;;;;;11.30;5.70;;;22.40;99.90;;;;;;5053351;28;20033;-69
2023/06/21 02:26:46;;;;;;;7.95;5.68;;;22.50;99.90;;;;;;5053375;28;20029;-68
2023/06/21 02:29:12;;;;;;;9.77;5.97;;;22.40;99.90;;;;;;5053169;28;20025;-68
2023/06/21 02:31:37;;;;;;;10.27;6.00;;;22.50;99.90;;;;;;5052934;28;20041;-68
2023/06/21 02:34:03;;;;;;;9.45;5.80;;;22.50;99.90;;;;;;5053699;28;20036;-69
2023/06/21 02:36:29;;;;;;;8.88;5.90;;;22.40;99.90;;;;;;5053192;28;20118;-70
2023/06/21 02:38:55;;;;;;;7.78;5.80;;;22.40;99.90;;;;;;5053129;28;20029;-69
2023/06/21 02:41:21;;;;;;;9.00;5.90;;;22.40;99.90;;;;;;5052730;28;20048;-68
2023/06/21 02:43:46;;;;;;;10.15;6.00;;;22.30;99.90;;;;;;5051810;28;20013;-68
2023/06/21 02:46:12;;;;;;;9.82;6.15;;;22.30;99.90;;;;;;5053068;28;20328;-68
2023/06/21 02:48:38;;;;;;;11.32;7.18;;;22.10;99.90;;;;;;5051277;28;20036;-68
2023/06/21 02:51:03;;;;;;;7.32;6.03;;;22.10;99.90;;;;;;5052649;28;20091;-68
2023/06/21 02:53:29;;;;;;;9.80;5.80;;;22.10;99.90;;;;;;5052632;28;20076;-68
2023/06/21 02:55:54;;;;;;;11.82;6.05;;;22.10;99.90;;;;;;5051580;28;20021;-69
2023/06/21 02:58:20;;;;;;;12.70;7.28;;;22.00;99.90;;;;;;5053000;28;20132;-68
2023/06/21 03:00:46;;;;;;;13.77;6.63;;;22.00;99.90;;;;;;5052305;28;20029;-67
2023/06/21 03:03:11;;;;;;;13.15;8.13;;;22.00;99.90;;;;;;5051968;28;20033;-68
2023/06/21 03:05:37;;;;;;;10.40;7.13;;;22.00;99.90;;;;;;5052053;28;20026;-69
2023/06/21 03:08:04;;;;;;;11.07;6.95;;;22.00;99.90;;;;;;5052005;28;20095;-69
2023/06/21 03:10:32;;;;;;;9.30;7.53;;;22.00;99.90;;;;;;5052892;28;20032;-69
2023/06/21 03:12:58;;;;;;;13.00;8.15;;;21.90;99.90;;;;;;5050965;28;20032;-68
2023/06/21 03:15:24;;;;;;;13.25;7.60;;;22.00;99.90;;;;;;5052010;28;20055;-68
2023/06/21 03:17:50;;;;;;;13.95;7.85;;;21.80;99.90;;;;;;5052180;28;20545;-69
2023/06/21 03:20:16;;;;;;;14.57;8.38;;;21.80;99.90;;;;;;5051995;28;20060;-68
2023/06/21 03:22:43;;;;;;;13.50;7.82;;;21.90;99.90;;;;;;5051896;28;20096;-68
2023/06/21 03:25:10;;;;;;;11.50;7.43;;;21.80;99.90;;;;;;5052539;28;20036;-69
2023/06/21 03:27:36;;;;;;;13.82;8.95;;;21.80;99.90;;;;;;5051949;28;20036;-69
2023/06/21 03:30:03;;;;;;;13.65;7.72;;;21.80;99.90;;;;;;5050790;28;20039;-69
2023/06/21 03:32:29;;;;;;;16.63;8.30;;;21.80;99.90;;;;;;5050463;28;20546;-68
2023/06/21 03:34:54;;;;;;;12.48;8.02;;;21.80;99.90;;;;;;5051676;28;20107;-69
2023/06/21 03:37:20;;;;;;;11.70;8.40;;;21.80;99.90;;;;;;5052134;28;20031;-69
2023/06/21 03:39:46;;;;;;;14.43;9.52;;;21.80;99.90;;;;;;5051542;28;20033;-68
2023/06/21 03:42:12;;;;;;;14.00;8.18;;;21.80;99.90;;;;;;5051552;28;20025;-69
2023/06/21 03:44:38;;;;;;;16.27;8.32;;;21.70;99.90;;;;;;5051395;28;20466;-67
2023/06/21 03:47:03;;;;;;;13.60;8.85;;;21.80;99.90;;;;;;5050513;28;20109;-68
2023/06/21 03:49:30;;;;;;;12.18;8.07;;;21.70;99.90;;;;;;5052254;28;20048;-69
2023/06/21 03:51:55;;;;;;;11.77;7.97;;;21.70;99.90;;;;;;5031658;28;20526;-69
2023/06/21 03:54:21;;;;;;;12.65;9.00;;;21.70;99.90;;;;;;5031547;28;20049;-69
2023/06/21 03:56:47;;;;;;;11.52;8.07;;;21.60;99.90;;;;;;5030127;28;20038;-69
2023/06/21 03:59:13;;;;;;;12.38;8.20;;;21.60;99.90;;;;;;5031589;28;20029;-69
2023/06/21 04:01:38;;;;;;;18.67;9.52;;;21.70;99.90;;;;;;5031562;28;20079;-67
2023/06/21 04:04:04;;;;;;;24.33;9.90;;;21.70;99.90;;;;;;5030651;28;20025;-68
2023/06/21 04:06:30;;;;;;;17.20;9.05;;;21.70;99.90;;;;;;5031208;28;20064;-70
2023/06/21 04:08:55;;;;;;;16.00;9.75;;;21.70;99.90;;;;;;5031381;28;20528;-69
2023/06/21 04:11:22;;;;;;;16.55;8.95;;;21.70;99.90;;;;;;5031124;28;20048;-67
2023/06/21 04:13:48;;;;;;;14.98;9.40;;;21.60;99.90;;;;;;5030094;28;20105;-68
2023/06/21 04:16:14;;;;;;;18.48;9.57;;;21.70;99.90;;;;;;5031426;28;20112;-69
2023/06/21 04:18:39;;;;;;;13.90;8.88;;;21.70;99.90;;;;;;5031098;28;20034;-69
2023/06/21 04:21:05;;;;;;;13.35;9.15;;;21.70;99.90;;;;;;5031024;28;20034;-68
2023/06/21 04:23:31;;;;;;;13.75;9.13;;;21.70;99.90;;;;;;5031020;28;20050;-70
2023/06/21 04:25:56;;;;;;;17.20;10.00;;;21.80;99.90;;;;;;5030917;28;20171;-70
2023/06/21 04:28:25;;;;;;;11.45;9.00;;;21.80;99.90;;;;;;5031351;28;20033;-69
2023/06/21 04:30:52;;;;;;;17.42;9.80;;;21.80;99.90;;;;;;5030879;28;20033;-70
2023/06/21 04:33:18;;;;;;;14.65;9.45;;;21.80;99.90;;;;;;5030983;28;20312;-67
2023/06/21 04:35:44;;;;;;;13.23;8.68;;;21.70;99.90;;;;;;5030640;28;20033;-68
2023/06/21 04:38:09;;;;;;;14.43;8.93;;;21.60;99.90;;;;;;5029808;28;20056;-68
2023/06/21 04:40:35;;;;;;;14.73;8.88;;;21.70;99.90;;;;;;5030929;28;20026;-68
2023/06/21 04:43:03;;;;;;;15.63;9.00;;;21.70;99.90;;;;;;5030649;28;20339;-69
2023/06/21 04:45:30;;;;;;;17.92;8.45;;;21.70;99.90;;;;;;5030545;28;20452;-68
2023/06/21 04:47:57;;;;;;;16.00;8.73;;;21.80;99.90;;;;;;5030503;28;20038;-69
2023/06/21 04:50:24;;;;;;;13.77;8.60;;;21.70;99.90;;;;;;5030794;28;20039;-68
2023/06/21 04:52:50;;;;;;;11.95;7.70;;;21.80;99.90;;;;;;5030764;28;20500;-68
2023/06/21 04:55:18;;;;;;;12.55;8.20;;;21.80;99.90;;;;;;5030941;28;20033;-69
2023/06/21 04:57:45;;;;;;;11.27;7.20;;;21.80;99.90;;;;;;5030395;28;20033;-68
2023/06/21 05:00:11;;;;;;;9.97;7.20;;;21.90;99.90;;;;;;5030453;28;20033;-69
2023/06/21 05:02:37;;;;;;;13.48;8.05;;;22.00;99.90;;;;;;5030394;28;20044;-70
2023/06/21 05:05:03;;;;;;;12.48;7.28;;;22.00;99.90;;;;;;5030237;28;20033;-69
2023/06/21 05:07:29;;;;;;;11.48;7.22;;;22.00;99.90;;;;;;5029969;28;20415;-69
2023/06/21 05:09:54;;;;;;;11.68;6.47;;;21.90;99.90;;;;;;5030231;28;20076;-69
2023/06/21 05:12:20;;;;;;;9.05;6.07;;;22.00;99.90;;;;;;5030243;28;20025;-70
2023/06/21 05:14:46;;;;;;;9.45;7.32;;;22.00;99.90;;;;;;5030289;28;20379;-69
2023/06/21 05:17:15;;;;;;;8.73;6.55;;;22.00;99.90;;;;;;5030428;28;20034;-67
2023/06/21 05:19:42;;;;;;;12.00;6.13;;;22.10;99.90;;;;;;5030128;28;20087;-69
2023/06/21 05:22:07;;;;;;;10.90;6.60;;;22.10;99.90;;;;;;5029648;28;20113;-68
2023/06/21 05:24:33;;;;;;;13.10;7.00;;;22.10;99.90;;;;;;5030385;28;20112;-69
2023/06/21 05:26:59;;;;;;;11.80;6.47;;;22.00;99.90;;;;;;5030497;28;20109;-68
2023/06/21 05:29:25;;;;;;;11.75;6.32;;;22.00;99.90;;;;;;5030529;28;20037;-69
2023/06/21 05:31:51;;;;;;;12.18;6.63;;;22.00;99.90;;;;;;5029166;28;20053;-68
2023/06/21 05:34:17;;;;;;;8.63;6.18;;;22.10;99.90;;;;;;5031149;28;20032;-68
2023/06/21 05:36:43;;;;;;;9.48;5.82;;;22.10;99.90;;;;;;5030693;28;20112;-69
2023/06/21 05:39:08;;;;;;;11.05;6.72;;;22.10;99.90;;;;;;5030562;28;20400;-69
2023/06/21 05:41:34;;;;;;;13.68;5.90;;;22.20;99.90;;;;;;5032351;28;20029;-68
2023/06/21 05:44:00;;;;;;;12.27;6.40;;;22.20;99.90;;;;;;5031997;28;20025;-68
2023/06/21 05:46:25;;;;;;;10.95;6.47;;;22.20;99.90;;;;;;5031243;28;20022;-69
2023/06/21 05:48:51;;;;;;;11.70;5.50;;;22.20;99.90;;;;;;5030501;28;20029;-70
2023/06/21 05:51:16;;;;;;;16.00;6.50;;;22.30;99.90;;;;;;5030628;28;20030;-68
2023/06/21 05:53:42;;;;;;;10.13;6.25;;;22.30;99.90;;;;;;5030973;28;20040;-68
2023/06/21 05:56:08;;;;;;;15.50;5.65;;;22.40;99.90;;;;;;5031574;28;20033;-70
2023/06/21 05:58:33;;;;;;;19.52;6.25;;;22.40;99.90;;;;;;5032284;28;20026;-67
2023/06/21 06:00:59;;;;;;;11.48;6.72;;;22.40;99.90;;;;;;5030969;28;20079;-68
2023/06/21 06:03:25;;;;;;;17.58;5.63;;;22.50;99.90;;;;;;5030598;28;20365;-69
2023/06/21 06:05:52;;;;;;;9.63;6.03;;;22.50;99.90;;;;;;5030622;28;20487;-68
2023/06/21 06:08:18;;;;;;;9.10;5.57;;;22.50;99.90;;;;;;5030662;28;20056;-68
2023/06/21 06:10:43;;;;;;;10.25;5.70;;;22.60;99.90;;;;;;5029772;28;20048;-68
2023/06/21 06:13:09;;;;;;;10.30;5.50;;;22.60;99.90;;;;;;5030380;28;20148;-68
2023/06/21 06:15:35;;;;;;;9.82;5.00;;;22.80;99.90;;;;;;5029681;28;20064;-69
2023/06/21 06:18:00;;;;;;;7.63;4.95;;;22.70;99.90;;;;;;5029907;28;20459;-69
2023/06/21 06:20:26;;;;;;;8.18;5.25;;;22.80;99.90;;;;;;5029562;28;20041;-67
2023/06/21 06:22:52;;;;;;;13.10;5.50;;;22.80;99.90;;;;;;5028054;28;20104;-70
2023/06/21 06:25:18;;;;;;;7.60;4.78;;;22.80;99.90;;;;;;5029050;28;20040;-71
2023/06/21 06:27:44;;;;;;;5.82;4.45;;;22.90;99.90;;;;;;5029332;28;20042;-69
2023/06/21 06:30:11;;;;;;;8.48;4.53;;;22.90;99.90;;;;;;5037809;28;20037;-70
2023/06/21 06:32:37;;;;;;;6.97;4.60;;;22.90;99.90;;;;;;5048191;28;20132;-70
2023/06/21 06:35:03;;;;;;;6.63;4.50;;;22.80;99.90;;;;;;5049471;28;20119;-70
2023/06/21 06:37:28;;;;;;;5.55;4.28;;;22.80;99.90;;;;;;5052347;28;20025;-69
2023/06/21 06:39:55;;;;;;;7.20;4.03;;;23.00;99.90;;;;;;5052969;28;20102;-67
2023/06/21 06:42:20;;;;;;;11.18;4.40;;;22.90;99.90;;;;;;5052730;28;20087;-69
2023/06/21 06:44:47;;;;;;;8.35;4.45;;;23.10;99.90;;;;;;5052856;28;20483;-69
2023/06/21 06:47:12;;;;;;;6.78;4.10;;;23.20;99.90;;;;;;5052799;28;20139;-71
2023/06/21 06:49:38;;;;;;;9.23;5.32;;;23.20;99.90;;;;;;5052744;28;20025;-69
2023/06/21 06:52:05;;;;;;;6.88;4.47;;;23.20;99.90;;;;;;5053403;28;20029;-70
2023/06/21 06:54:30;;;;;;;7.95;4.90;;;23.20;99.90;;;;;;5052712;28;20037;-68
2023/06/21 06:56:56;;;;;;;7.93;4.60;;;23.30;99.90;;;;;;5052648;28;20356;-70
2023/06/21 06:59:22;;;;;;;5.70;4.22;;;23.30;99.90;;;;;;5052502;28;20033;-70
2023/06/21 07:01:48;;;;;;;9.85;4.40;;;23.40;99.90;;;;;;5051188;28;20025;-70
2023/06/21 07:04:14;;;;;;;8.00;4.63;;;23.50;99.90;;;;;;5052697;28;20462;-68
2023/06/21 07:06:42;;;;;;;6.78;4.07;;;23.50;99.90;;;;;;5052339;28;20112;-70
2023/06/21 07:09:08;;;;;;;8.35;4.75;;;23.60;99.90;;;;;;5052367;28;20479;-70
2023/06/21 07:11:35;;;;;;;6.47;4.05;;;23.70;99.90;;;;;;5052443;28;20348;-72
2023/06/21 07:14:01;;;;;;;8.13;4.05;;;23.70;99.90;;;;;;5051314;28;20040;-72
2023/06/21 07:16:33;;;;;;;6.57;5.03;;;23.80;99.90;;;;;;5053231;28;20112;-71
2023/06/21 07:18:59;;;;;;;7.70;4.55;;;23.90;99.90;;;;;;5052798;28;20033;-71
2023/06/21 07:21:27;;;;;;;6.78;3.92;;;24.00;99.90;;;;;;5053360;28;20029;-71
2023/06/21 07:23:53;;;;;;;9.20;4.50;;;24.00;99.80;;;;;;5052143;28;20033;-69
2023/06/21 07:26:18;;;;;;;14.93;4.68;;;24.00;99.60;;;;;;5052395;28;20026;-69
2023/06/21 07:28:44;;;;;;;8.43;4.60;;;24.00;99.50;;;;;;5051298;28;20048;-69
2023/06/21 07:31:10;;;;;;;6.78;3.58;;;24.10;99.50;;;;;;5052506;28;20343;-70
2023/06/21 07:33:36;;;;;;;5.20;3.78;;;24.20;99.20;;;;;;5052750;28;20040;-68
2023/06/21 07:36:02;;;;;;;6.32;4.13;;;24.20;99.10;;;;;;5052659;28;20048;-67
2023/06/21 07:38:28;;;;;;;6.75;3.70;;;24.10;99.10;;;;;;5052080;28;20033;-70
2023/06/21 07:40:54;;;;;;;5.30;3.42;;;24.10;99.10;;;;;;5050954;28;20021;-75
2023/06/21 07:43:20;;;;;;;7.47;4.07;;;24.30;99.00;;;;;;5052771;28;20032;-74
2023/06/21 07:45:46;;;;;;;6.90;4.10;;;24.20;98.90;;;;;;5051776;28;20029;-74
2023/06/21 07:48:11;;;;;;;8.02;4.93;;;24.20;99.30;;;;;;5050527;28;20530;-70
2023/06/21 07:50:37;;;;;;;7.45;4.32;;;24.20;99.30;;;;;;5052096;28;20335;-74
2023/06/21 07:53:03;;;;;;;8.55;4.20;;;24.40;99.20;;;;;;5051817;28;20066;-75
2023/06/21 07:55:29;;;;;;;5.43;3.80;;;24.40;98.90;;;;;;5052370;28;20085;-73
2023/06/21 07:57:55;;;;;;;8.57;4.40;;;24.50;98.80;;;;;;5051787;28;20039;-73
2023/06/21 08:00:21;;;;;;;11.50;4.38;;;24.70;98.70;;;;;;5052078;28;20368;-73
2023/06/21 08:02:51;;;;;;;5.65;4.13;;;24.70;98.50;;;;;;5051601;28;20107;-73
2023/06/21 08:05:17;;;;;;;8.50;4.82;;;24.50;98.10;;;;;;5051551;28;20025;-72
2023/06/21 08:07:42;;;;;;;10.48;4.70;;;24.60;98.20;;;;;;5052440;28;20470;-72
2023/06/21 08:10:09;;;;;;;8.43;4.55;;;24.90;98.20;;;;;;5052839;28;20029;-72
2023/06/21 08:12:35;;;;;;;8.48;4.40;;;25.10;98.00;;;;;;5050602;28;20421;-71
2023/06/21 08:15:00;;;;;;;8.85;4.63;;;25.20;97.40;;;;;;5051555;28;20095;-70
2023/06/21 08:17:26;;;;;;;7.60;5.03;;;25.20;97.60;;;;;;5051307;28;20059;-72
2023/06/21 08:19:52;;;;;;;6.90;5.05;;;25.40;97.30;;;;;;5050153;28;20037;-71
2023/06/21 08:22:21;;;;;;;7.07;5.00;;;25.50;97.20;;;;;;5050338;28;20025;-71
2023/06/21 08:24:47;;;;;;;5.97;5.25;;;25.70;97.30;;;;;;5049686;28;20082;-73
2023/06/21 08:27:14;;;;;;;8.40;5.65;;;25.90;97.20;;;;;;5049907;28;20025;-71
2023/06/21 08:29:40;;;;;;;9.10;6.43;;;26.00;96.90;;;;;;5052069;28;20029;-71
2023/06/21 08:32:06;;;;;;;10.95;5.90;;;26.00;96.80;;;;;;5051193;28;20123;-71
2023/06/21 08:34:32;;;;;;;8.05;5.90;;;26.10;96.90;;;;;;5050802;28;20029;-72
2023/06/21 08:36:58;;;;;;;9.10;6.10;;;26.50;96.30;;;;;;5052017;28;20116;-72
2023/06/21 08:39:23;;;;;;;13.27;6.03;;;26.40;95.90;;;;;;5050984;28;20125;-71
2023/06/21 08:41:49;;;;;;;9.77;5.05;;;26.30;95.80;;;;;;5049711;28;20051;-71
2023/06/21 08:44:15;;;;;;;8.30;5.43;;;26.70;95.40;;;;;;5049600;28;20048;-72
2023/06/21 08:46:42;;;;;;;6.70;5.00;;;27.20;94.40;;;;;;5050719;28;20462;-72
2023/06/21 08:49:13;;;;;;;12.20;5.13;;;27.10;93.90;;;;;;5051675;28;20064;-74
2023/06/21 08:51:40;;;;;;;11.07;4.85;;;27.40;93.50;;;;;;5051159;28;20029;-73
2023/06/21 08:54:08;;;;;;;8.45;5.03;;;27.90;92.80;;;;;;5051668;28;20095;-72
2023/06/21 08:56:55;;;;;;;7.65;4.55;;;28.40;92.50;;;;;;5051335;28;20143;-72
2023/06/21 08:59:39;;;;;;;9.10;5.45;;;29.10;90.90;;;;;;5048905;28;20120;-71
2023/06/21 09:02:27;;;;;;;7.28;5.00;;;28.50;90.80;;;;;;5051093;28;20474;-71
2023/06/21 09:04:54;;;;;;;7.70;5.07;;;28.90;90.30;;;;;;5051195;28;20394;-74
2023/06/21 09:07:22;;;;;;;9.30;5.50;;;29.00;90.20;;;;;;5051675;28;20021;-72
2023/06/21 09:09:52;;;;;;;8.43;5.50;;;29.10;89.30;;;;;;5051320;28;20029;-71
2023/06/21 09:12:18;;;;;;;8.43;5.95;;;28.70;90.20;;;;;;5051169;28;20040;-72
2023/06/21 09:14:44;;;;;;;8.50;6.03;;;28.80;90.20;;;;;;5050586;28;20117;-73
2023/06/21 09:17:11;;;;;;;9.63;5.80;;;28.60;90.30;;;;;;5050220;28;20430;-72
2023/06/21 09:19:37;;;;;;;13.55;5.47;;;29.10;90.40;;;;;;5050594;28;20017;-73
2023/06/21 09:22:03;;;;;;;6.70;5.15;;;29.10;90.30;;;;;;5069311;28;20496;-73
2023/06/21 09:24:29;;;;;;;7.03;5.10;;;29.20;89.20;;;;;;5070428;28;20032;-73
2023/06/21 09:26:55;;;;;;;8.75;5.50;;;29.20;87.50;;;;;;5059439;28;20033;-72
2023/06/21 09:29:21;;;;;;;7.63;4.68;;;29.30;88.40;;;;;;5050228;28;20487;-73
2023/06/21 09:31:47;;;;;;;7.57;5.05;;;29.30;87.40;;;;;;5049891;28;20060;-72
2023/06/21 09:34:13;;;;;;;7.63;5.30;;;29.10;87.10;;;;;;5049602;28;20041;-72
2023/06/21 09:36:40;;;;;;;6.72;5.43;;;28.90;85.30;;;;;;5050142;28;20060;-72
2023/06/21 09:39:10;;;;;;;7.35;5.13;;;28.70;85.30;;;;;;5050148;28;20040;-72
2023/06/21 09:41:38;;;;;;;12.23;6.07;;;28.90;85.30;;;;;;5050449;28;20033;-74
2023/06/21 09:44:03;;;;;;;9.30;6.40;;;28.80;86.00;;;;;;5050023;28;20210;-72
2023/06/21 09:46:29;;;;;;;12.30;6.43;;;29.10;85.20;;;;;;5050805;28;20167;-72
2023/06/21 09:49:09;;;;;;;9.18;7.07;;;28.70;84.40;;;;;;5050247;28;20028;-73
2023/06/21 09:51:42;;;;;;;9.75;6.10;;;28.20;84.80;;;;;;5050178;28;20036;-72
2023/06/21 09:54:08;;;;;;;8.70;6.80;;;28.50;84.80;;;;;;5049997;28;20044;-73
2023/06/21 09:56:35;;;;;;;9.00;6.68;;;28.40;83.40;;;;;;5049892;28;20033;-72
2023/06/21 09:59:02;;;;;;;7.07;6.03;;;28.30;83.30;;;;;;5050094;28;20033;-75
2023/06/21 10:01:46;;;;;;;8.00;6.50;;;28.60;82.90;;;;;;5050692;28;20052;-71
2023/06/21 10:04:16;;;;;;;11.88;7.55;;;28.60;83.90;;;;;;5050099;28;20048;-68
2023/06/21 10:06:55;;;;;;;8.55;7.60;;;28.60;84.00;;;;;;5048908;28;20174;-70
2023/06/21 10:09:21;;;;;;;10.50;7.03;;;28.20;86.00;;;;;;5049913;28;20056;-72
2023/06/21 10:11:49;;;;;;;12.07;7.85;;;28.50;85.50;;;;;;5051079;28;20455;-71
2023/06/21 10:14:22;;;;;;;16.17;9.32;;;27.90;86.20;;;;;;5052669;28;20067;-71
2023/06/21 10:16:53;;;;;;;9.80;7.88;;;27.90;86.60;;;;;;5053773;28;20366;-70
2023/06/21 10:19:22;;;;;;;11.60;7.80;;;28.20;86.60;;;;;;5053848;28;20151;-71
2023/06/21 10:22:04;;;;;;;9.63;8.48;;;28.50;86.10;;;;;;5053685;28;20063;-72
2023/06/21 10:24:51;;;;;;;13.35;9.25;;;28.40;85.10;;;;;;5053470;28;20040;-73
2023/06/21 10:27:18;;;;;;;12.85;8.00;;;28.10;85.90;;;;;;5053476;28;20312;-71
2023/06/21 10:29:48;;;;;;;8.90;7.55;;;28.10;86.20;;;;;;5053426;28;20044;-72
2023/06/21 10:32:15;;;;;;;8.48;7.20;;;28.00;86.00;;;;;;5053273;28;20094;-69
2023/06/21 10:35:09;;;;;;;9.82;7.63;;;28.20;85.50;;;;;;5053051;28;20094;-69
2023/06/21 10:37:52;;;;;;;12.30;8.40;;;28.40;85.50;;;;;;5053533;28;20017;-71
2023/06/21 10:40:18;;;;;;;11.13;8.07;;;28.40;84.90;;;;;;5053396;28;20374;-72
2023/06/21 10:42:45;;;;;;;13.10;7.15;;;28.60;85.20;;;;;;5052079;28;20054;-73
2023/06/21 10:45:12;;;;;;;10.50;7.77;;;28.60;85.10;;;;;;5053075;28;20060;-72
2023/06/21 10:47:39;;;;;;;11.43;8.20;;;28.60;84.60;;;;;;5053363;28;20266;-72
2023/06/21 10:50:09;;;;;;;19.02;8.27;;;28.40;84.50;;;;;;5053112;28;20033;-81
2023/06/21 10:52:35;;;;;;;11.70;8.27;;;28.60;84.70;;;;;;5053735;28;20029;-72
2023/06/21 10:55:03;;;;;;;9.68;7.88;;;28.70;84.50;;;;;;5052992;28;20060;-77
2023/06/21 10:57:29;;;;;;;;;;;28.90;84.60;;;;;;5053680;28;20287;-74
2023/06/21 10:59:57;;;;;;;16.58;7.97;;;28.90;84.40;;;;;;5053344;28;19987;-73
2023/06/21 11:02:23;;;;;;;;;;;28.80;83.40;;;;;;5053363;28;20368;-74
2023/06/21 11:05:16;;;;;;;8.80;6.60;;;28.70;83.00;;;;;;5052837;28;20233;-74
2023/06/21 11:07:58;;;;;;;7.22;5.82;;;28.60;82.70;;;;;;5052479;28;20021;-72
2023/06/21 11:10:40;;;;;;;7.03;5.97;;;28.60;83.30;;;;;;5052752;28;20041;-72
2023/06/21 11:13:07;;;;;;;10.18;5.90;;;28.60;82.40;;;;;;5052685;28;20040;-73
2023/06/21 11:15:33;;;;;;;8.10;5.75;;;28.80;82.40;;;;;;5051309;28;20044;-71
2023/06/21 11:18:07;;;;;;;11.25;6.32;;;28.80;82.60;;;;;;5052379;28;20041;-71
2023/06/21 11:20:50;;;;;;;9.70;5.50;;;29.00;82.10;;;;;;5052317;28;20036;-71
2023/06/21 11:23:22;;;;;;;9.88;5.40;;;28.90;81.40;;;;;;5051876;28;20411;-72
2023/06/21 11:25:58;;;;;;;7.60;5.35;;;28.80;81.30;;;;;;5052250;28;20116;-71
2023/06/21 11:28:29;;;;;;;10.60;5.60;;;28.80;81.70;;;;;;5052547;28;20111;-71
2023/06/21 11:31:06;;;;;;;8.35;5.63;;;29.00;82.00;;;;;;5052093;28;20071;-73
2023/06/21 11:33:43;;;;;;;15.80;5.85;;;29.10;80.80;;;;;;5051649;28;20049;-73
2023/06/21 11:36:09;;;;;;;9.38;5.43;;;29.20;81.00;;;;;;5051714;28;20040;-71
2023/06/21 11:38:35;;;;;;;5.82;4.95;;;29.10;81.00;;;;;;5051740;28;20041;-72
2023/06/21 11:41:02;;;;;;;8.82;5.25;;;29.10;81.40;;;;;;5052017;28;20366;-72
2023/06/21 11:43:28;;;;;;;6.73;5.07;;;29.10;80.90;;;;;;5051508;28;20057;-74
2023/06/21 11:46:02;;;;;;;5.90;4.68;;;28.90;80.60;;;;;;5051802;28;20052;-73
2023/06/21 11:48:29;;;;;;;9.93;7.70;;;29.10;80.30;;;;;;5051668;28;20470;-72
2023/06/21 11:51:16;;;;;;;7.82;4.85;;;29.10;79.90;;;;;;5050578;28;20087;-71
2023/06/21 11:53:43;;;;;;;6.53;5.30;;;29.20;79.30;;;;;;5051440;28;20033;-72
2023/06/21 11:56:09;;;;;;;7.90;5.15;;;29.20;80.40;;;;;;5051625;28;20044;-73
2023/06/21 11:58:35;;;;;;;6.82;5.43;;;28.90;81.40;;;;;;5052226;28;20033;-73
2023/06/21 12:01:03;;;;;;;5.70;4.65;;;29.00;81.20;;;;;;5051719;28;20099;-72
2023/06/21 12:03:28;;;;;;;8.75;4.90;;;29.10;81.10;;;;;;5031636;28;20040;-74
2023/06/21 12:06:04;;;;;;;7.72;5.07;;;29.10;80.30;;;;;;5030458;28;20033;-72
2023/06/21 12:08:39;;;;;;;5.68;4.30;;;29.00;80.50;;;;;;5031259;28;20044;-71
2023/06/21 12:11:09;;;;;;;8.85;4.22;;;29.10;80.00;;;;;;5031554;28;20037;-71
2023/06/21 12:13:37;;;;;;;7.32;4.53;;;29.00;80.70;;;;;;5031690;28;20025;-72
2023/06/21 12:16:03;;;;;;;;;;;29.10;80.80;;;;;;5031741;28;20041;-72
2023/06/21 12:18:32;;;;;;;4.85;4.30;;;29.20;80.40;;;;;;5030081;28;19909;-73
2023/06/21 12:20:59;;;;;;;6.35;5.05;;;29.20;80.70;;;;;;5029975;28;20390;-71
2023/06/21 12:23:28;;;;;;;9.57;5.15;;;29.10;80.90;;;;;;5031127;28;20029;-72
2023/06/21 12:25:59;;;;;;;7.15;4.50;;;29.20;80.70;;;;;;5031021;28;20341;-72
2023/06/21 12:28:26;;;;;;;5.63;4.55;;;29.10;80.90;;;;;;5031438;28;20052;-72
2023/06/21 12:31:07;;;;;;;8.95;4.90;;;29.10;80.70;;;;;;5031166;28;20341;-72
2023/06/21 12:33:36;;;;;;;8.93;4.07;;;29.20;81.10;;;;;;5029451;28;20054;-72
2023/06/21 12:36:17;;;;;;;12.07;5.32;;;29.10;81.30;;;;;;5030248;28;20037;-73
2023/06/21 12:39:05;;;;;;;6.53;4.22;;;29.20;81.50;;;;;;5029681;28;20060;-74
2023/06/21 12:41:32;;;;;;;6.82;3.88;;;29.20;80.70;;;;;;5030969;28;20053;-74
2023/06/21 12:43:59;;;;;;;7.03;4.25;;;29.20;81.30;;;;;;5031269;28;20045;-75
2023/06/21 12:46:26;;;;;;;9.50;4.47;;;29.30;81.50;;;;;;5031119;28;20113;-75
2023/06/21 12:48:57;;;;;;;4.55;4.00;;;29.20;80.40;;;;;;5030677;28;20029;-74
2023/06/21 12:51:25;;;;;;;9.45;4.75;;;29.00;79.80;;;;;;5030502;28;20030;-69